Time;durP1;ratioP1;P1;durP2;ratioP2;P2;SDS_P1;SDS_P2;PMS_P1;PMS_P2;Temp;Humidity;BMP_temperature;BMP_pressure;BME280_temperature;BME280_humidity;BME280_pressure;Samples;Min_cycle;Max_cycle;Signal;HPM_P1;HPM_P2
2021/12/14 00:00:31;;;;;;;;;;;25.20;29.50;;;;;;487396;244;1486;-79
2021/12/14 00:02:33;;;;;;;;;;;25.10;29.50;;;;;;487362;244;1094;-79
2021/12/14 00:04:35;;;;;;;;;;;25.10;29.60;;;;;;487429;243;964;-78
2021/12/14 00:06:35;;;;;;;;;;;24.90;29.70;;;;;;487179;244;1452;-79
2021/12/14 00:08:48;;;;;;;;;;;25.00;29.60;;;;;;487397;243;1135;-78
2021/12/14 00:11:08;;;;;;;;;;;24.90;29.70;;;;;;486720;244;2120;-79
2021/12/14 00:12:58;;;;;;;;;;;25.00;29.60;;;;;;486195;244;1433;-78
2021/12/14 00:15:13;;;;;;;;;;;25.10;29.50;;;;;;487102;245;1283;-78
2021/12/14 00:17:15;;;;;;;;;;;25.10;29.50;;;;;;487455;243;1411;-78
2021/12/14 00:19:16;;;;;;;;;;;25.10;29.50;;;;;;487413;243;1158;-78
2021/12/14 00:21:20;;;;;;;;;;;25.00;29.50;;;;;;487431;243;1148;-78
2021/12/14 00:25:39;;;;;;;;;;;25.20;29.40;;;;;;487395;242;1150;-78
2021/12/14 00:27:41;;;;;;;;;;;25.20;29.30;;;;;;487387;244;1164;-78
2021/12/14 00:29:42;;;;;;;;;;;25.10;29.50;;;;;;487410;243;1450;-78
2021/12/14 00:31:43;;;;;;;;;;;24.90;29.50;;;;;;487374;244;2194;-78
2021/12/14 00:33:44;;;;;;;;;;;25.10;29.50;;;;;;487473;244;1200;-79
2021/12/14 00:35:46;;;;;;;;;;;25.00;29.50;;;;;;487403;243;1136;-78
2021/12/14 00:37:47;;;;;;;;;;;25.10;29.50;;;;;;487498;243;1120;-78
2021/12/14 00:39:48;;;;;;;;;;;25.20;29.40;;;;;;487444;244;978;-78
2021/12/14 00:41:50;;;;;;;;;;;25.30;29.30;;;;;;487429;243;1131;-79
2021/12/14 00:43:52;;;;;;;;;;;25.10;29.40;;;;;;487380;243;1101;-79
2021/12/14 00:45:53;;;;;;;;;;;25.10;29.30;;;;;;487330;243;1253;-78
2021/12/14 00:47:55;;;;;;;;;;;25.30;29.30;;;;;;487334;243;1135;-78
2021/12/14 00:49:56;;;;;;;;;;;25.20;29.20;;;;;;487438;243;1099;-79
2021/12/14 00:51:57;;;;;;;;;;;25.20;29.30;;;;;;487463;243;2218;-78
2021/12/14 00:53:59;;;;;;;;;;;25.20;29.30;;;;;;487340;244;1070;-79
2021/12/14 00:56:00;;;;;;;;;;;25.10;29.30;;;;;;487423;243;1196;-78
2021/12/14 00:58:01;;;;;;;;;;;25.00;29.40;;;;;;487301;244;1061;-78
2021/12/14 01:00:03;;;;;;;;;;;25.40;29.20;;;;;;487428;243;981;-78
2021/12/14 01:02:04;;;;;;;;;;;25.40;28.90;;;;;;487323;243;1166;-79
2021/12/14 01:04:05;;;;;;;;;;;25.20;29.20;;;;;;487374;243;1174;-79
2021/12/14 01:06:10;;;;;;;;;;;25.30;29.00;;;;;;487434;243;1119;-79
2021/12/14 01:08:09;;;;;;;;;;;25.20;29.10;;;;;;487329;243;1377;-78
2021/12/14 01:10:10;;;;;;;;;;;25.30;29.10;;;;;;487709;243;1079;-78
2021/12/14 01:12:14;;;;;;;;;;;25.10;29.20;;;;;;487501;244;2181;-78
2021/12/14 01:14:12;;;;;;;;;;;25.10;29.20;;;;;;487280;244;1412;-78
2021/12/14 01:16:16;;;;;;;;;;;25.20;29.10;;;;;;487328;242;1199;-78
2021/12/14 01:18:28;;;;;;;;;;;25.20;29.20;;;;;;487238;244;1307;-78
2021/12/14 01:20:17;;;;;;;;;;;25.10;29.10;;;;;;486596;244;1314;-78
2021/12/14 01:22:32;;;;;;;;;;;25.10;29.20;;;;;;487474;243;1073;-78
2021/12/14 01:24:34;;;;;;;;;;;25.50;29.00;;;;;;486850;244;1408;-78
2021/12/14 01:26:22;;;;;;;;;;;25.20;29.00;;;;;;486715;244;1405;-78
2021/12/14 01:28:24;;;;;;;;;;;25.20;29.00;;;;;;487445;240;1143;-78
2021/12/14 01:30:26;;;;;;;;;;;24.90;29.30;;;;;;487178;244;1419;-79
2021/12/14 01:32:29;;;;;;;;;;;25.20;29.30;;;;;;487388;243;2193;-78
2021/12/14 01:34:30;;;;;;;;;;;25.00;29.20;;;;;;487253;240;1504;-78
2021/12/14 01:36:36;;;;;;;;;;;25.00;29.30;;;;;;487409;243;1333;-78
2021/12/14 01:38:44;;;;;;;;;;;25.00;29.10;;;;;;487164;244;1461;-78
2021/12/14 01:40:53;;;;;;;;;;;24.90;29.20;;;;;;486983;243;1465;-78
2021/12/14 01:42:55;;;;;;;;;;;24.90;29.20;;;;;;487583;244;1067;-78
2021/12/14 01:44:56;;;;;;;;;;;25.40;29.10;;;;;;487470;242;995;-78
2021/12/14 01:46:58;;;;;;;;;;;25.10;29.20;;;;;;487360;243;1230;-78
2021/12/14 01:49:02;;;;;;;;;;;25.20;29.10;;;;;;487458;243;1155;-78
2021/12/14 01:51:00;;;;;;;;;;;25.00;29.10;;;;;;487442;244;2186;-79
2021/12/14 01:53:02;;;;;;;;;;;25.00;29.20;;;;;;487607;242;1027;-79
2021/12/14 01:55:03;;;;;;;;;;;25.00;29.20;;;;;;487441;242;1040;-78
2021/12/14 01:57:05;;;;;;;;;;;25.10;29.10;;;;;;487519;242;1211;-78
2021/12/14 01:59:06;;;;;;;;;;;25.30;29.10;;;;;;487431;243;1496;-78
2021/12/14 02:01:07;;;;;;;;;;;25.10;29.10;;;;;;487314;243;1198;-78
2021/12/14 02:03:08;;;;;;;;;;;24.90;29.10;;;;;;487355;243;1097;-78
2021/12/14 02:05:09;;;;;;;;;;;25.00;29.10;;;;;;487412;243;1187;-79
2021/12/14 02:07:11;;;;;;;;;;;25.20;29.00;;;;;;487490;243;1042;-79
2021/12/14 02:09:12;;;;;;;;;;;25.30;29.00;;;;;;487882;243;1465;-78
2021/12/14 02:11:13;;;;;;;;;;;25.10;28.90;;;;;;487419;243;2194;-78
2021/12/14 02:13:15;;;;;;;;;;;25.00;29.00;;;;;;487301;243;1649;-78
2021/12/14 02:15:16;;;;;;;;;;;25.10;29.00;;;;;;487437;243;1001;-78
2021/12/14 02:17:17;;;;;;;;;;;25.10;28.90;;;;;;487484;243;983;-78
2021/12/14 02:19:19;;;;;;;;;;;25.10;29.00;;;;;;487560;243;1173;-78
2021/12/14 02:21:20;;;;;;;;;;;25.30;28.80;;;;;;487390;243;1106;-78
2021/12/14 02:23:22;;;;;;;;;;;25.20;28.80;;;;;;487559;245;1054;-78
2021/12/14 02:25:23;;;;;;;;;;;25.30;28.90;;;;;;487774;243;994;-78
2021/12/14 02:27:24;;;;;;;;;;;24.90;29.00;;;;;;487424;244;970;-78
2021/12/14 02:29:26;;;;;;;;;;;24.90;29.20;;;;;;487473;243;1134;-79
2021/12/14 02:31:27;;;;;;;;;;;25.10;28.90;;;;;;487335;242;2194;-78
2021/12/14 02:33:29;;;;;;;;;;;25.10;29.00;;;;;;487421;243;1039;-78
2021/12/14 02:35:30;;;;;;;;;;;25.20;28.80;;;;;;487450;243;1193;-78
2021/12/14 02:37:31;;;;;;;;;;;25.00;28.90;;;;;;486203;244;1051;-78
2021/12/14 02:39:48;;;;;;;;;;;25.00;28.90;;;;;;487783;243;1075;-78
2021/12/14 02:41:47;;;;;;;;;;;25.20;28.90;;;;;;487281;244;1510;-78
2021/12/14 02:43:49;;;;;;;;;;;25.10;28.80;;;;;;487564;243;1016;-78
2021/12/14 02:45:50;;;;;;;;;;;24.90;29.00;;;;;;487429;240;1227;-78
2021/12/14 02:47:51;;;;;;;;;;;25.00;29.10;;;;;;487435;243;970;-78
2021/12/14 02:49:53;;;;;;;;;;;24.80;29.10;;;;;;487382;245;1142;-78
2021/12/14 02:51:54;;;;;;;;;;;25.10;28.90;;;;;;487535;242;2134;-78
2021/12/14 02:53:55;;;;;;;;;;;24.90;28.90;;;;;;487457;243;1092;-78
2021/12/14 02:55:57;;;;;;;;;;;25.20;28.90;;;;;;487618;243;1211;-78
2021/12/14 02:57:58;;;;;;;;;;;24.90;29.00;;;;;;487458;243;1038;-78
2021/12/14 02:59:59;;;;;;;;;;;25.00;28.90;;;;;;487588;244;1112;-79
2021/12/14 03:02:03;;;;;;;;;;;25.10;28.80;;;;;;487349;240;1313;-78
2021/12/14 03:04:03;;;;;;;;;;;25.30;28.60;;;;;;487314;245;1475;-78
2021/12/14 03:06:05;;;;;;;;;;;25.10;28.70;;;;;;487439;243;1178;-79
2021/12/14 03:08:06;;;;;;;;;;;24.90;28.70;;;;;;487315;244;1436;-78
2021/12/14 03:10:19;;;;;;;;;;;24.90;28.80;;;;;;487438;243;991;-78
2021/12/14 03:12:08;;;;;;;;;;;25.00;28.60;;;;;;486658;243;2190;-78
2021/12/14 03:14:10;;;;;;;;;;;25.10;28.60;;;;;;487467;241;1018;-78
2021/12/14 03:16:12;;;;;;;;;;;25.10;28.60;;;;;;487393;240;1247;-78
2021/12/14 03:18:14;;;;;;;;;;;24.90;28.60;;;;;;487413;242;1426;-78
2021/12/14 03:20:14;;;;;;;;;;;25.00;28.70;;;;;;487344;242;1491;-78
2021/12/14 03:22:15;;;;;;;;;;;24.90;28.70;;;;;;487359;243;1437;-78
2021/12/14 03:24:16;;;;;;;;;;;24.80;28.90;;;;;;487402;242;1293;-78
2021/12/14 03:26:18;;;;;;;;;;;24.90;28.60;;;;;;487443;242;1201;-78
2021/12/14 03:28:19;;;;;;;;;;;24.90;28.60;;;;;;487365;243;1115;-78
2021/12/14 03:30:20;;;;;;;;;;;24.80;28.70;;;;;;487632;242;1114;-78
2021/12/14 03:32:22;;;;;;;;;;;24.80;28.80;;;;;;487520;242;2201;-78
2021/12/14 03:34:23;;;;;;;;;;;24.70;28.80;;;;;;487403;242;1117;-78
2021/12/14 03:36:24;;;;;;;;;;;24.70;28.80;;;;;;487247;245;1252;-78
2021/12/14 03:38:26;;;;;;;;;;;24.70;28.80;;;;;;487485;243;1091;-78
2021/12/14 03:40:27;;;;;;;;;;;24.60;28.90;;;;;;487475;243;994;-78
2021/12/14 03:42:35;;;;;;;;;;;24.80;28.70;;;;;;487352;243;1055;-79
2021/12/14 03:44:30;;;;;;;;;;;24.60;28.80;;;;;;487251;244;1385;-79
2021/12/14 03:46:31;;;;;;;;;;;24.70;28.80;;;;;;487486;243;1283;-78
2021/12/14 03:48:33;;;;;;;;;;;24.60;28.70;;;;;;487401;243;963;-78
2021/12/14 03:50:34;;;;;;;;;;;24.50;28.80;;;;;;487441;242;1187;-78
2021/12/14 03:52:35;;;;;;;;;;;24.40;28.90;;;;;;487441;242;2203;-78
2021/12/14 03:54:37;;;;;;;;;;;24.30;29.10;;;;;;487556;242;1176;-78
2021/12/14 03:56:38;;;;;;;;;;;24.40;29.00;;;;;;487496;243;1305;-78
2021/12/14 03:58:39;;;;;;;;;;;24.50;29.00;;;;;;487385;243;972;-78
2021/12/14 04:00:41;;;;;;;;;;;24.50;28.80;;;;;;487357;243;1251;-78
2021/12/14 04:02:42;;;;;;;;;;;24.60;28.80;;;;;;487583;243;1054;-78
2021/12/14 04:04:43;;;;;;;;;;;24.60;28.70;;;;;;487446;242;992;-78
2021/12/14 04:06:45;;;;;;;;;;;24.80;28.60;;;;;;487393;243;1300;-78
2021/12/14 04:08:46;;;;;;;;;;;24.60;28.70;;;;;;487594;242;1103;-78
2021/12/14 04:10:47;;;;;;;;;;;24.60;28.70;;;;;;487459;242;1137;-78
2021/12/14 04:12:49;;;;;;;;;;;24.60;28.70;;;;;;487400;242;2202;-78
2021/12/14 04:14:50;;;;;;;;;;;24.70;28.50;;;;;;487457;242;1064;-78
2021/12/14 04:16:51;;;;;;;;;;;24.80;28.60;;;;;;487426;244;1361;-78
2021/12/14 04:18:53;;;;;;;;;;;24.50;28.70;;;;;;487350;245;1045;-79
2021/12/14 04:20:55;;;;;;;;;;;24.50;28.70;;;;;;487391;243;1383;-78
2021/12/14 04:22:55;;;;;;;;;;;24.80;28.60;;;;;;487244;244;1193;-78
2021/12/14 04:24:57;;;;;;;;;;;24.80;28.50;;;;;;487334;244;999;-78
2021/12/14 04:26:58;;;;;;;;;;;24.70;28.50;;;;;;487484;243;1201;-78
2021/12/14 04:28:59;;;;;;;;;;;24.80;28.40;;;;;;487513;242;1065;-78
2021/12/14 04:31:01;;;;;;;;;;;24.80;28.40;;;;;;487358;243;1028;-78
2021/12/14 04:33:02;;;;;;;;;;;24.70;28.40;;;;;;487371;243;2127;-78
2021/12/14 04:35:03;;;;;;;;;;;24.70;28.50;;;;;;487424;244;1082;-79
2021/12/14 04:37:05;;;;;;;;;;;24.80;28.30;;;;;;487256;245;1304;-78
2021/12/14 04:39:29;;;;;;;;;;;24.70;28.40;;;;;;487415;243;1076;-78
2021/12/14 04:52:46;;;;;;;;;;;25.20;28.00;;;;;;487402;242;2147;-78
2021/12/14 04:54:47;;;;;;;;;;;24.90;27.80;;;;;;487462;243;958;-78
2021/12/14 04:56:48;;;;;;;;;;;24.60;28.30;;;;;;487318;244;1230;-78
2021/12/14 04:58:50;;;;;;;;;;;24.70;28.10;;;;;;487425;243;1062;-78
2021/12/14 05:00:52;;;;;;;;;;;24.60;28.20;;;;;;487306;244;1436;-78
2021/12/14 05:02:53;;;;;;;;;;;24.70;28.00;;;;;;487384;244;1043;-78
2021/12/14 05:04:56;;;;;;;;;;;24.90;28.10;;;;;;487380;243;1017;-78
2021/12/14 05:07:03;;;;;;;;;;;24.70;28.00;;;;;;487384;243;1472;-78
2021/12/14 05:11:17;;;;;;;;;;;25.10;27.70;;;;;;487344;242;1344;-78
2021/12/14 05:13:18;;;;;;;;;;;25.10;27.70;;;;;;487365;243;2120;-78
2021/12/14 05:15:19;;;;;;;;;;;25.20;27.70;;;;;;487388;243;1044;-78
2021/12/14 05:17:21;;;;;;;;;;;25.30;27.70;;;;;;487418;243;1214;-78
2021/12/14 05:19:22;;;;;;;;;;;25.10;27.70;;;;;;487411;243;1287;-78
2021/12/14 05:21:23;;;;;;;;;;;24.90;27.80;;;;;;487365;243;1433;-78
2021/12/14 05:23:25;;;;;;;;;;;25.00;27.80;;;;;;487582;244;1172;-78
2021/12/14 05:25:27;;;;;;;;;;;24.90;27.70;;;;;;487345;243;946;-78
2021/12/14 05:27:28;;;;;;;;;;;24.60;28.00;;;;;;487267;244;1504;-79
2021/12/14 05:29:29;;;;;;;;;;;24.40;28.30;;;;;;487330;244;1459;-78
2021/12/14 05:31:30;;;;;;;;;;;24.50;28.20;;;;;;487357;243;1294;-78
2021/12/14 05:33:31;;;;;;;;;;;24.60;28.10;;;;;;487511;244;2198;-78
2021/12/14 05:35:33;;;;;;;;;;;24.50;28.30;;;;;;487347;243;1061;-78
2021/12/14 05:37:42;;;;;;;;;;;24.40;28.30;;;;;;487401;243;1518;-78
2021/12/14 05:39:47;;;;;;;;;;;24.30;28.30;;;;;;486722;244;1499;-78
2021/12/14 05:44:04;;;;;;;;;;;24.40;28.30;;;;;;487395;242;1093;-78
2021/12/14 05:46:04;;;;;;;;;;;24.20;28.40;;;;;;487237;244;1415;-78
2021/12/14 05:48:06;;;;;;;;;;;24.40;28.50;;;;;;487254;243;1178;-78
2021/12/14 05:50:07;;;;;;;;;;;24.30;28.20;;;;;;487242;244;1025;-78
2021/12/14 05:52:09;;;;;;;;;;;24.20;28.30;;;;;;487234;243;1090;-78
2021/12/14 05:54:10;;;;;;;;;;;24.10;28.50;;;;;;487246;243;2174;-78
2021/12/14 05:56:11;;;;;;;;;;;24.00;28.60;;;;;;487635;243;1214;-78
2021/12/14 05:58:13;;;;;;;;;;;24.20;28.40;;;;;;487371;244;1032;-78
2021/12/14 06:00:14;;;;;;;;;;;24.10;28.50;;;;;;487330;243;1060;-78
2021/12/14 06:02:15;;;;;;;;;;;24.10;28.40;;;;;;487250;243;1596;-78
2021/12/14 06:04:17;;;;;;;;;;;23.80;28.60;;;;;;487211;243;1078;-79
2021/12/14 06:06:18;;;;;;;;;;;23.70;28.70;;;;;;487259;243;1062;-79
2021/12/14 06:08:19;;;;;;;;;;;23.70;28.90;;;;;;487340;243;1322;-78
2021/12/14 06:10:21;;;;;;;;;;;23.90;28.70;;;;;;487262;243;1030;-79
2021/12/14 06:12:22;;;;;;;;;;;24.00;28.60;;;;;;487138;240;1161;-78
2021/12/14 06:14:23;;;;;;;;;;;24.10;28.60;;;;;;487263;243;2178;-78
2021/12/14 06:16:24;;;;;;;;;;;24.10;28.40;;;;;;487086;243;1067;-78
2021/12/14 06:18:26;;;;;;;;;;;24.10;28.50;;;;;;487231;243;1090;-78
2021/12/14 06:20:28;;;;;;;;;;;24.00;28.50;;;;;;487096;244;1043;-78
2021/12/14 06:22:28;;;;;;;;;;;23.90;28.60;;;;;;487201;243;1228;-78
2021/12/14 06:24:30;;;;;;;;;;;23.90;28.60;;;;;;487281;243;1040;-78
2021/12/14 06:26:31;;;;;;;;;;;24.00;28.50;;;;;;487181;243;1083;-78
2021/12/14 06:28:32;;;;;;;;;;;24.00;28.50;;;;;;487219;244;998;-78
2021/12/14 06:30:34;;;;;;;;;;;23.90;28.60;;;;;;487204;243;1104;-78
2021/12/14 06:32:37;;;;;;;;;;;24.00;28.60;;;;;;487105;243;1053;-78
2021/12/14 06:34:36;;;;;;;;;;;24.10;28.40;;;;;;487055;243;2137;-78
2021/12/14 06:36:38;;;;;;;;;;;24.00;28.50;;;;;;487077;243;1134;-78
2021/12/14 06:38:39;;;;;;;;;;;24.10;28.30;;;;;;487344;244;1117;-78
2021/12/14 06:40:40;;;;;;;;;;;23.90;28.50;;;;;;487163;240;1190;-78
2021/12/14 06:42:42;;;;;;;;;;;23.90;28.60;;;;;;487441;240;1245;-78
2021/12/14 06:44:43;;;;;;;;;;;24.00;28.50;;;;;;487219;244;1168;-78
2021/12/14 06:46:44;;;;;;;;;;;23.80;28.60;;;;;;487195;243;1201;-78
2021/12/14 06:48:46;;;;;;;;;;;24.00;28.40;;;;;;487183;243;1422;-78
2021/12/14 06:50:47;;;;;;;;;;;24.20;28.40;;;;;;487131;243;1187;-78
2021/12/14 06:52:48;;;;;;;;;;;24.00;28.50;;;;;;487198;242;2162;-78
2021/12/14 06:54:50;;;;;;;;;;;24.00;28.60;;;;;;487137;243;1059;-78
2021/12/14 06:56:51;;;;;;;;;;;24.00;28.50;;;;;;487043;242;1220;-78
2021/12/14 06:58:53;;;;;;;;;;;24.00;28.50;;;;;;487034;243;1303;-78
2021/12/14 07:00:54;;;;;;;;;;;24.10;28.40;;;;;;487034;243;1285;-78
2021/12/14 07:02:56;;;;;;;;;;;24.00;28.40;;;;;;487261;242;1185;-78
2021/12/14 07:04:57;;;;;;;;;;;24.00;28.40;;;;;;487087;243;1495;-78
2021/12/14 07:06:58;;;;;;;;;;;24.10;28.40;;;;;;486900;243;1192;-78
2021/12/14 07:08:59;;;;;;;;;;;23.80;28.60;;;;;;487097;243;1214;-78
2021/12/14 07:11:00;;;;;;;;;;;23.80;28.80;;;;;;486950;243;1235;-78
2021/12/14 07:13:02;;;;;;;;;;;23.60;28.80;;;;;;486887;243;2193;-78
2021/12/14 07:15:03;;;;;;;;;;;23.60;28.80;;;;;;487102;244;1108;-78
2021/12/14 07:17:06;;;;;;;;;;;23.60;29.00;;;;;;487191;243;1178;-78
2021/12/14 07:19:06;;;;;;;;;;;23.80;28.80;;;;;;486972;243;1421;-78
2021/12/14 07:21:07;;;;;;;;;;;23.80;28.70;;;;;;487032;243;1482;-78
2021/12/14 07:23:08;;;;;;;;;;;23.90;28.80;;;;;;486803;243;1086;-78
2021/12/14 07:25:11;;;;;;;;;;;23.70;28.80;;;;;;486750;243;1137;-78
2021/12/14 07:27:11;;;;;;;;;;;23.90;28.60;;;;;;486825;243;1427;-78
2021/12/14 07:29:12;;;;;;;;;;;23.70;28.70;;;;;;487007;244;1061;-78
2021/12/14 07:31:14;;;;;;;;;;;23.70;28.90;;;;;;486909;242;1204;-78
2021/12/14 07:33:15;;;;;;;;;;;23.80;28.70;;;;;;487048;243;2119;-78
2021/12/14 07:35:16;;;;;;;;;;;23.70;28.70;;;;;;486955;244;1234;-78
2021/12/14 07:37:18;;;;;;;;;;;23.80;28.80;;;;;;487116;243;1371;-78
2021/12/14 07:39:19;;;;;;;;;;;24.00;28.60;;;;;;486871;243;1309;-78
2021/12/14 07:41:20;;;;;;;;;;;24.80;28.00;;;;;;486779;242;1336;-78
2021/12/14 07:43:22;;;;;;;;;;;25.10;27.60;;;;;;486737;243;1033;-78
2021/12/14 07:45:23;;;;;;;;;;;25.10;27.50;;;;;;486750;243;1182;-78
2021/12/14 07:47:24;;;;;;;;;;;25.00;27.50;;;;;;486914;242;1073;-78
2021/12/14 07:49:26;;;;;;;;;;;25.40;27.30;;;;;;486724;245;1121;-78
2021/12/14 07:51:27;;;;;;;;;;;24.90;27.40;;;;;;486801;244;1397;-78
2021/12/14 07:53:28;;;;;;;;;;;25.20;27.40;;;;;;486713;243;2198;-78
2021/12/14 07:55:29;;;;;;;;;;;25.50;27.20;;;;;;486652;243;1160;-78
2021/12/14 07:57:31;;;;;;;;;;;25.60;27.10;;;;;;486575;243;1131;-78
2021/12/14 07:59:32;;;;;;;;;;;25.60;27.10;;;;;;486805;243;1153;-78
2021/12/14 08:01:33;;;;;;;;;;;25.80;26.90;;;;;;486549;243;1154;-78
2021/12/14 08:03:35;;;;;;;;;;;25.70;27.10;;;;;;486575;243;1042;-78
2021/12/14 08:05:36;;;;;;;;;;;25.40;27.10;;;;;;486747;243;1021;-78
2021/12/14 08:07:37;;;;;;;;;;;25.50;27.10;;;;;;486607;243;1114;-78
2021/12/14 08:09:46;;;;;;;;;;;25.40;27.10;;;;;;486707;243;1267;-78
2021/12/14 08:11:47;;;;;;;;;;;25.30;27.10;;;;;;486308;244;2316;-78
2021/12/14 08:13:48;;;;;;;;;;;25.40;27.20;;;;;;486788;243;2178;-78
2021/12/14 08:15:51;;;;;;;;;;;25.50;27.20;;;;;;486645;243;1065;-78
2021/12/14 08:17:51;;;;;;;;;;;25.20;27.10;;;;;;486717;243;1438;-78
2021/12/14 08:19:52;;;;;;;;;;;25.10;27.40;;;;;;486782;243;1037;-78
2021/12/14 08:21:55;;;;;;;;;;;24.60;27.60;;;;;;486739;243;1091;-78
2021/12/14 08:23:55;;;;;;;;;;;24.80;27.60;;;;;;486739;243;1369;-78
2021/12/14 08:25:56;;;;;;;;;;;25.30;27.20;;;;;;486776;243;1133;-78
2021/12/14 08:28:00;;;;;;;;;;;25.10;27.20;;;;;;486735;243;1124;-78
2021/12/14 08:29:59;;;;;;;;;;;24.90;27.40;;;;;;486591;243;1383;-78
2021/12/14 08:32:00;;;;;;;;;;;25.10;27.20;;;;;;486429;243;1101;-78
2021/12/14 08:34:02;;;;;;;;;;;25.10;27.20;;;;;;486615;244;2119;-78
2021/12/14 08:36:03;;;;;;;;;;;25.10;27.20;;;;;;486669;243;1067;-78
2021/12/14 08:38:05;;;;;;;;;;;25.00;27.20;;;;;;486669;243;1090;-78
2021/12/14 08:40:05;;;;;;;;;;;25.30;27.30;;;;;;486642;243;1395;-78
2021/12/14 08:42:09;;;;;;;;;;;25.00;27.30;;;;;;486592;243;1162;-78
2021/12/14 08:44:11;;;;;;;;;;;25.20;27.20;;;;;;486522;243;1405;-78
2021/12/14 08:46:09;;;;;;;;;;;24.90;27.30;;;;;;486838;243;1289;-78
2021/12/14 08:48:11;;;;;;;;;;;25.20;27.20;;;;;;486615;243;1041;-78
2021/12/14 08:50:12;;;;;;;;;;;24.90;27.30;;;;;;486647;243;1115;-78
2021/12/14 08:52:13;;;;;;;;;;;25.00;27.40;;;;;;486472;243;1124;-78
2021/12/14 08:54:15;;;;;;;;;;;25.20;27.20;;;;;;486449;243;2190;-78
2021/12/14 08:56:16;;;;;;;;;;;25.10;27.40;;;;;;486467;243;1255;-78
2021/12/14 08:58:18;;;;;;;;;;;25.10;27.20;;;;;;486457;243;1632;-78
2021/12/14 09:00:19;;;;;;;;;;;25.40;27.00;;;;;;486704;243;1052;-78
2021/12/14 09:02:20;;;;;;;;;;;25.30;27.20;;;;;;486610;243;1087;-78
2021/12/14 09:04:21;;;;;;;;;;;25.40;27.20;;;;;;486527;242;1104;-78
2021/12/14 09:06:23;;;;;;;;;;;25.40;27.00;;;;;;486618;243;1086;-78
2021/12/14 09:08:24;;;;;;;;;;;25.30;27.10;;;;;;486678;240;1092;-78
2021/12/14 09:10:25;;;;;;;;;;;25.10;27.30;;;;;;486622;243;1231;-78
2021/12/14 09:12:27;;;;;;;;;;;25.00;27.30;;;;;;486492;243;1083;-78
2021/12/14 09:14:28;;;;;;;;;;;25.10;27.40;;;;;;486501;243;2179;-78
2021/12/14 09:16:29;;;;;;;;;;;25.20;27.30;;;;;;486564;244;1061;-78
2021/12/14 09:18:31;;;;;;;;;;;25.20;27.30;;;;;;486770;240;1252;-78
2021/12/14 09:20:32;;;;;;;;;;;25.00;27.30;;;;;;486781;243;1185;-78
2021/12/14 09:22:33;;;;;;;;;;;25.20;27.20;;;;;;486797;243;1356;-78
2021/12/14 09:24:35;;;;;;;;;;;25.40;27.20;;;;;;486694;243;1054;-78
2021/12/14 09:26:36;;;;;;;;;;;25.10;27.40;;;;;;486743;243;1203;-78
2021/12/14 09:28:37;;;;;;;;;;;25.10;27.50;;;;;;486834;243;1325;-78
2021/12/14 09:30:39;;;;;;;;;;;25.10;27.40;;;;;;486750;243;1439;-77
2021/12/14 09:32:40;;;;;;;;;;;25.40;27.20;;;;;;486777;243;822;-78
2021/12/14 09:34:41;;;;;;;;;;;25.40;27.30;;;;;;486668;243;2190;-78
2021/12/14 09:36:43;;;;;;;;;;;25.50;27.20;;;;;;486737;243;1241;-78
2021/12/14 09:38:44;;;;;;;;;;;25.70;27.00;;;;;;486628;243;1063;-78
2021/12/14 09:40:45;;;;;;;;;;;25.70;27.00;;;;;;486582;243;1555;-78
2021/12/14 09:42:46;;;;;;;;;;;25.70;27.00;;;;;;487035;243;1084;-78
2021/12/14 09:44:48;;;;;;;;;;;25.70;27.00;;;;;;486839;243;1081;-78
2021/12/14 09:46:49;;;;;;;;;;;25.70;27.10;;;;;;486782;243;1092;-78
2021/12/14 09:48:50;;;;;;;;;;;26.00;27.00;;;;;;487087;243;1076;-77
2021/12/14 09:50:52;;;;;;;;;;;25.30;27.20;;;;;;486702;243;1092;-78
2021/12/14 09:52:53;;;;;;;;;;;25.90;27.10;;;;;;486715;243;1242;-78
2021/12/14 09:54:54;;;;;;;;;;;25.50;27.20;;;;;;486653;243;2198;-78
2021/12/14 09:56:56;;;;;;;;;;;25.80;27.10;;;;;;486798;243;1490;-78
2021/12/14 09:58:59;;;;;;;;;;;25.90;27.00;;;;;;486617;243;1062;-78
2021/12/14 10:00:59;;;;;;;;;;;25.60;27.20;;;;;;486674;244;1323;-78
2021/12/14 10:03:00;;;;;;;;;;;25.80;27.20;;;;;;486594;244;1071;-78
2021/12/14 10:05:01;;;;;;;;;;;25.80;27.10;;;;;;486697;242;1053;-78
2021/12/14 10:07:04;;;;;;;;;;;25.60;27.30;;;;;;486687;242;1289;-78
2021/12/14 10:09:04;;;;;;;;;;;25.70;27.20;;;;;;486529;242;1297;-78
2021/12/14 10:11:07;;;;;;;;;;;25.90;27.10;;;;;;486460;243;1265;-78
2021/12/14 10:13:07;;;;;;;;;;;25.90;27.10;;;;;;486278;240;1783;-78
2021/12/14 10:15:08;;;;;;;;;;;26.10;27.10;;;;;;486470;243;2187;-78
2021/12/14 10:17:09;;;;;;;;;;;26.00;27.00;;;;;;486664;243;1097;-78
2021/12/14 10:19:12;;;;;;;;;;;25.50;27.30;;;;;;486542;243;1097;-78
2021/12/14 10:21:12;;;;;;;;;;;25.50;27.20;;;;;;486548;244;1311;-78
2021/12/14 10:23:13;;;;;;;;;;;25.20;27.60;;;;;;486778;242;1121;-78
2021/12/14 10:25:15;;;;;;;;;;;25.40;27.40;;;;;;486716;243;1188;-78
2021/12/14 10:27:16;;;;;;;;;;;25.60;27.40;;;;;;486637;242;1214;-78
2021/12/14 10:29:17;;;;;;;;;;;25.20;27.60;;;;;;486475;243;1204;-78
2021/12/14 10:31:19;;;;;;;;;;;25.40;27.50;;;;;;486558;242;1161;-78
2021/12/14 10:33:20;;;;;;;;;;;25.20;27.50;;;;;;486567;243;1212;-78
2021/12/14 10:35:23;;;;;;;;;;;25.80;27.30;;;;;;486626;243;2178;-78
2021/12/14 10:37:24;;;;;;;;;;;25.70;27.30;;;;;;486796;243;1457;-78
2021/12/14 10:39:36;;;;;;;;;;;25.60;27.50;;;;;;486770;243;1442;-78
2021/12/14 10:44:04;;;;;;;;;;;25.40;27.70;;;;;;465179;256;1403;-78
2021/12/14 10:46:06;;;;;;;;;;;25.40;27.70;;;;;;465306;254;1208;-78
2021/12/14 10:48:07;;;;;;;;;;;25.60;27.70;;;;;;465165;256;1143;-78
2021/12/14 10:50:08;;;;;;;;;;;25.20;27.90;;;;;;484695;243;1206;-78
2021/12/14 10:52:10;;;;;;;;;;;25.50;27.60;;;;;;486795;242;1039;-78
2021/12/14 10:54:13;;;;;;;;;;;25.20;27.80;;;;;;486737;243;2186;-78
2021/12/14 10:56:13;;;;;;;;;;;25.70;27.60;;;;;;486569;244;1367;-78
2021/12/14 10:58:14;;;;;;;;;;;25.60;27.70;;;;;;486928;242;1147;-77
2021/12/14 11:00:15;;;;;;;;;;;25.50;27.60;;;;;;486668;242;1079;-78
2021/12/14 11:02:20;;;;;;;;;;;25.50;27.70;;;;;;486785;243;1074;-78
2021/12/14 11:04:18;;;;;;;;;;;25.50;27.70;;;;;;486754;243;1351;-78
2021/12/14 11:06:21;;;;;;;;;;;25.40;27.60;;;;;;486686;243;1589;-78
2021/12/14 11:08:36;;;;;;;;;;;25.50;27.70;;;;;;486634;243;1360;-78
2021/12/14 11:10:26;;;;;;;;;;;25.60;27.50;;;;;;486192;243;1316;-78
2021/12/14 11:12:27;;;;;;;;;;;25.60;27.60;;;;;;486747;244;1459;-78
2021/12/14 11:14:28;;;;;;;;;;;25.50;27.40;;;;;;486493;243;2197;-78
2021/12/14 11:18:07;;;;;;;;;;;25.30;27.80;;;;;;486654;243;1527;-78
2021/12/14 11:18:33;;;;;;;;;;;25.20;27.90;;;;;;485327;245;1138;-78
2021/12/14 11:20:34;;;;;;;;;;;25.60;27.60;;;;;;486509;243;1037;-78
2021/12/14 11:22:36;;;;;;;;;;;25.50;27.60;;;;;;486771;242;1071;-78
2021/12/14 11:24:37;;;;;;;;;;;25.20;27.80;;;;;;486526;242;1059;-78
2021/12/14 11:26:39;;;;;;;;;;;25.40;27.90;;;;;;486561;240;1423;-78
2021/12/14 11:28:40;;;;;;;;;;;25.30;27.90;;;;;;486803;242;1136;-78
2021/12/14 11:30:41;;;;;;;;;;;25.50;27.80;;;;;;486828;243;1053;-78
2021/12/14 11:32:43;;;;;;;;;;;25.50;27.60;;;;;;486613;243;1533;-78
2021/12/14 11:34:45;;;;;;;;;;;25.70;27.50;;;;;;486527;243;2186;-78
2021/12/14 11:36:45;;;;;;;;;;;25.30;27.80;;;;;;486533;244;1321;-78
2021/12/14 11:38:47;;;;;;;;;;;25.30;27.70;;;;;;486742;243;1050;-78
2021/12/14 11:40:48;;;;;;;;;;;25.60;27.60;;;;;;486602;243;1458;-78
2021/12/14 11:42:49;;;;;;;;;;;25.30;27.80;;;;;;486497;243;2023;-78
2021/12/14 11:44:50;;;;;;;;;;;25.60;27.60;;;;;;486434;243;1107;-78
2021/12/14 11:46:52;;;;;;;;;;;25.50;27.70;;;;;;486474;245;1087;-78
2021/12/14 11:48:53;;;;;;;;;;;25.80;27.50;;;;;;486817;243;1100;-78
2021/12/14 11:50:54;;;;;;;;;;;25.80;27.40;;;;;;486570;243;1075;-78
2021/12/14 11:52:57;;;;;;;;;;;25.70;27.50;;;;;;486674;243;1058;-78
2021/12/14 11:54:57;;;;;;;;;;;25.70;27.50;;;;;;486697;243;2174;-78
2021/12/14 11:56:58;;;;;;;;;;;25.70;27.50;;;;;;486648;243;1086;-78
2021/12/14 11:59:01;;;;;;;;;;;25.90;27.50;;;;;;486732;243;1004;-78
2021/12/14 12:01:01;;;;;;;;;;;25.80;27.50;;;;;;486493;245;1337;-77
2021/12/14 12:03:02;;;;;;;;;;;25.20;27.70;;;;;;486629;243;1193;-78
2021/12/14 12:05:04;;;;;;;;;;;25.50;27.70;;;;;;486704;243;1107;-78
2021/12/14 12:09:31;;;;;;;;;;;25.60;27.70;;;;;;486361;242;968;-77
2021/12/14 12:11:33;;;;;;;;;;;25.70;27.50;;;;;;486339;243;1474;-78
2021/12/14 12:13:34;;;;;;;;;;;25.70;27.50;;;;;;486470;243;1451;-78
2021/12/14 12:15:35;;;;;;;;;;;25.50;27.60;;;;;;486652;242;2193;-78
2021/12/14 12:17:36;;;;;;;;;;;25.50;27.80;;;;;;486440;243;1391;-78
2021/12/14 12:19:37;;;;;;;;;;;25.50;27.70;;;;;;486663;243;1098;-78
2021/12/14 12:21:39;;;;;;;;;;;25.50;27.70;;;;;;486550;243;1140;-78